createdAt,value
2022-12-20T00:01:37.551Z,100904.08
2022-12-20T00:05:04.243Z,100901.02
2022-12-20T00:08:30.758Z,100903.60
2022-12-20T00:11:57.291Z,100901.70
2022-12-20T00:15:23.906Z,100898.78
2022-12-20T00:18:55.054Z,100895.86
2022-12-20T00:22:21.844Z,100892.77
2022-12-20T00:25:48.417Z,100883.67
2022-12-20T00:29:15.128Z,100884.35
2022-12-20T00:32:41.634Z,100888.76
2022-12-20T00:36:09.670Z,100884.46
2022-12-20T00:39:37.070Z,100886.36
2022-12-20T00:43:04.749Z,100890.42
2022-12-20T00:46:31.949Z,100891.45
2022-12-20T00:49:59.084Z,100879.61
2022-12-20T00:53:26.676Z,100874.29
2022-12-20T00:56:53.812Z,100871.22
2022-12-20T01:00:21.792Z,100877.19
2022-12-20T01:03:48.139Z,100866.39
2022-12-20T01:07:17.630Z,100870.50
2022-12-20T01:10:44.089Z,100869.11
2022-12-20T01:14:15.145Z,100862.94
2022-12-20T01:17:42.238Z,100863.78
2022-12-20T01:21:11.902Z,100866.02
2022-12-20T01:24:38.803Z,100858.30
2022-12-20T01:28:06.905Z,100839.81
2022-12-20T01:31:33.550Z,100846.67
2022-12-20T01:35:00.312Z,100843.42
2022-12-20T01:38:27.198Z,100838.66
2022-12-20T01:41:58.765Z,100838.50
2022-12-20T01:45:30.364Z,100831.32
2022-12-20T01:49:02.721Z,100824.49
2022-12-20T01:52:34.490Z,100831.86
2022-12-20T01:56:05.340Z,100835.97
2022-12-20T01:59:35.222Z,100832.70
2022-12-20T02:03:07.062Z,100832.67
2022-12-20T02:06:33.669Z,100827.54
2022-12-20T02:10:02.383Z,100830.25
2022-12-20T02:13:39.685Z,100828.67
2022-12-20T02:17:14.231Z,100833.47
2022-12-20T02:21:21.546Z,100838.77
2022-12-20T02:25:13.408Z,100831.40
2022-12-20T02:28:58.023Z,100828.82
2022-12-20T02:32:28.685Z,100827.27
2022-12-20T02:35:56.351Z,100827.07
2022-12-20T02:39:24.586Z,100822.78
2022-12-20T02:42:53.864Z,100827.39
2022-12-20T02:46:22.295Z,100824.28
2022-12-20T02:49:52.785Z,100817.76
2022-12-20T02:53:20.052Z,100813.30
2022-12-20T02:56:52.228Z,100812.13
2022-12-20T03:00:21.910Z,100816.96
2022-12-20T03:03:49.372Z,100820.08
2022-12-20T03:07:17.581Z,100821.64
2022-12-20T03:10:44.338Z,100819.95
2022-12-20T03:14:11.722Z,100827.83
2022-12-20T03:17:38.802Z,100838.61
2022-12-20T03:21:06.009Z,100834.00
2022-12-20T03:24:32.903Z,100832.79
2022-12-20T03:28:00.134Z,100836.84
2022-12-20T03:31:27.716Z,100825.53
2022-12-20T03:34:55.312Z,100807.88
2022-12-20T03:38:27.109Z,100810.58
2022-12-20T03:41:54.031Z,100804.89
2022-12-20T03:45:20.674Z,100811.72
2022-12-20T03:48:48.358Z,100818.02
2022-12-20T03:52:16.039Z,100821.61
2022-12-20T03:55:45.381Z,100815.46
2022-12-20T03:59:13.231Z,100812.03
2022-12-20T04:02:42.000Z,100807.25
2022-12-20T04:06:09.695Z,100813.94
2022-12-20T04:09:37.066Z,100804.34
2022-12-20T04:13:07.549Z,100800.09
2022-12-20T04:16:36.080Z,100790.88
2022-12-20T04:20:19.241Z,100784.09
2022-12-20T04:23:50.449Z,100789.24
2022-12-20T04:27:16.991Z,100795.61
2022-12-20T04:30:43.901Z,100801.27
2022-12-20T04:34:11.229Z,100800.38
2022-12-20T04:37:38.558Z,100795.74
2022-12-20T04:41:05.750Z,100796.43
2022-12-20T04:44:44.421Z,100798.76
2022-12-20T04:48:46.240Z,100805.41
2022-12-20T04:52:18.196Z,100809.83
2022-12-20T04:55:45.535Z,100814.09
2022-12-20T04:59:13.762Z,100807.58
2022-12-20T05:02:42.414Z,100806.53
2022-12-20T05:06:12.969Z,100808.42
2022-12-20T05:09:43.652Z,100807.75
2022-12-20T05:13:11.210Z,100806.39
2022-12-20T05:16:41.991Z,100800.77
2022-12-20T05:20:12.034Z,100789.33
2022-12-20T05:23:58.424Z,100780.44
2022-12-20T05:27:26.003Z,100789.89
2022-12-20T05:30:53.443Z,100795.22
2022-12-20T05:34:20.607Z,100783.92
2022-12-20T05:37:51.290Z,100783.06
2022-12-20T05:41:18.664Z,100774.84
2022-12-20T05:44:48.221Z,100764.91
2022-12-20T05:48:15.701Z,100766.13
2022-12-20T05:51:43.471Z,100777.05
2022-12-20T05:55:23.377Z,100780.78
2022-12-20T05:58:52.904Z,100777.34
2022-12-20T06:02:20.805Z,100782.80
2022-12-20T06:05:51.490Z,100776.94
2022-12-20T06:09:24.190Z,100777.78
2022-12-20T06:13:00.133Z,100772.27
2022-12-20T06:16:28.058Z,100775.51
2022-12-20T06:20:06.401Z,100780.98
2022-12-20T06:23:34.482Z,100781.32
2022-12-20T06:27:11.351Z,100780.14
2022-12-20T06:30:38.419Z,100780.16
2022-12-20T06:34:08.181Z,100779.05
2022-12-20T06:37:40.731Z,100791.85
2022-12-20T06:41:07.770Z,100801.14
2022-12-20T06:44:36.445Z,100805.42
2022-12-20T06:48:05.077Z,100801.48
2022-12-20T06:51:33.933Z,100805.05
2022-12-20T06:55:00.951Z,100810.66
2022-12-20T06:58:29.225Z,100812.71
2022-12-20T07:01:55.893Z,100815.08
2022-12-20T07:05:28.389Z,100816.77
2022-12-20T07:08:55.267Z,100815.02
2022-12-20T07:12:21.571Z,100817.02
2022-12-20T07:15:48.665Z,100823.17
2022-12-20T07:19:15.938Z,100819.69
2022-12-20T07:22:42.620Z,100833.39
2022-12-20T07:26:11.522Z,100841.10
2022-12-20T07:29:40.753Z,100839.89
2022-12-20T07:33:07.938Z,100834.77
2022-12-20T07:36:34.878Z,100830.48
2022-12-20T07:40:01.458Z,100839.77
2022-12-20T07:43:28.395Z,100848.71
2022-12-20T07:46:56.071Z,100833.13
2022-12-20T07:50:22.881Z,100824.23
2022-12-20T07:53:53.365Z,100820.13
2022-12-20T07:57:26.403Z,100818.73
2022-12-20T08:00:53.545Z,100822.33
2022-12-20T08:04:24.852Z,100832.90
2022-12-20T08:07:56.952Z,100831.64
2022-12-20T08:11:26.427Z,100822.65
2022-12-20T08:14:56.460Z,100822.42
2022-12-20T08:18:37.960Z,100832.47
2022-12-20T08:22:05.246Z,100832.95
2022-12-20T08:25:36.018Z,100829.67
2022-12-20T08:29:08.843Z,100821.75
2022-12-20T08:32:36.923Z,100823.79
2022-12-20T08:36:16.249Z,100827.39
2022-12-20T08:39:42.849Z,100831.33
2022-12-20T08:43:10.468Z,100833.69
2022-12-20T08:46:37.926Z,100827.30
2022-12-20T08:50:05.036Z,100821.13
2022-12-20T08:53:32.864Z,100810.96
2022-12-20T08:56:59.987Z,100806.47
2022-12-20T09:00:26.620Z,100803.36
2022-12-20T09:03:52.893Z,100798.71
2022-12-20T09:07:19.477Z,100789.86
2022-12-20T09:10:47.182Z,100788.35
2022-12-20T09:14:14.132Z,100787.04
2022-12-20T09:17:41.075Z,100792.27
2022-12-20T09:21:09.659Z,100796.33
2022-12-20T09:24:39.187Z,100800.92
2022-12-20T09:28:06.465Z,100798.83
2022-12-20T09:31:33.567Z,100805.45
2022-12-20T09:34:59.908Z,100802.68
2022-12-20T09:38:27.086Z,100807.45
2022-12-20T09:41:53.454Z,100805.20
2022-12-20T09:45:26.654Z,100787.36
2022-12-20T09:48:53.371Z,100788.94
2022-12-20T09:52:46.635Z,100792.58
2022-12-20T09:56:15.246Z,100784.00
2022-12-20T09:59:49.508Z,100774.77
2022-12-20T10:03:22.113Z,100779.52
2022-12-20T10:07:00.775Z,100779.11
2022-12-20T10:10:42.864Z,100771.52
2022-12-20T10:14:21.283Z,100766.33
2022-12-20T10:17:56.912Z,100769.48
2022-12-20T10:21:35.129Z,100769.50
2022-12-20T10:25:18.491Z,100769.55
2022-12-20T10:28:50.699Z,100762.92
2022-12-20T10:32:22.664Z,100759.93
2022-12-20T10:35:50.826Z,100754.42
2022-12-20T10:39:17.976Z,100764.33
2022-12-20T10:42:45.133Z,100768.61
2022-12-20T10:46:14.731Z,100770.86
2022-12-20T10:49:44.377Z,100762.15
2022-12-20T10:53:27.650Z,100759.23
2022-12-20T10:57:02.205Z,100751.18
2022-12-20T11:00:31.577Z,100753.23
2022-12-20T11:04:08.677Z,100752.58
2022-12-20T11:07:37.098Z,100745.34
2022-12-20T11:11:22.204Z,100737.74
2022-12-20T11:14:52.361Z,100736.48
2022-12-20T11:18:36.128Z,100733.20
2022-12-20T11:22:13.280Z,100732.75
2022-12-20T11:26:03.743Z,100734.88
2022-12-20T11:29:54.335Z,100738.79
2022-12-20T11:33:53.414Z,100736.55
2022-12-20T11:37:24.118Z,100743.37
2022-12-20T11:40:55.970Z,100747.22
2022-12-20T11:44:34.508Z,100742.47
2022-12-20T11:48:30.544Z,100738.05
2022-12-20T11:52:06.186Z,100731.27
2022-12-20T11:55:36.294Z,100722.55
2022-12-20T11:59:07.139Z,100722.59
2022-12-20T12:02:41.418Z,100714.36
2022-12-20T12:06:13.416Z,100708.99
2022-12-20T12:09:44.764Z,100710.86
2022-12-20T12:13:20.521Z,100705.77
2022-12-20T12:16:53.144Z,100700.59
2022-12-20T12:20:36.145Z,100697.25
2022-12-20T12:24:09.350Z,100702.33
2022-12-20T12:27:36.653Z,100696.84
2022-12-20T12:31:10.985Z,100689.61
2022-12-20T12:34:57.269Z,100688.09
2022-12-20T12:38:45.249Z,100686.25
2022-12-20T12:42:37.822Z,100688.05
2022-12-20T12:46:14.237Z,100689.52
2022-12-20T12:49:42.200Z,100689.41
2022-12-20T12:53:16.261Z,100685.18
2022-12-20T12:56:46.880Z,100678.34
2022-12-20T13:00:52.258Z,100678.15
2022-12-20T13:04:30.270Z,100670.38
2022-12-20T13:07:57.146Z,100668.41
2022-12-20T13:11:36.049Z,100660.44
2022-12-20T13:15:02.933Z,100656.80
2022-12-20T13:18:31.941Z,100645.81
2022-12-20T13:22:00.487Z,100640.45
2022-12-20T13:25:34.189Z,100641.60
2022-12-20T13:29:27.406Z,100645.92
2022-12-20T13:33:19.595Z,100649.77
2022-12-20T13:36:45.766Z,100657.74
2022-12-20T13:40:25.911Z,100653.67
2022-12-20T13:43:55.363Z,100649.08
2022-12-20T13:47:33.929Z,100658.24
2022-12-20T13:51:02.917Z,100661.73
2022-12-20T13:54:29.586Z,100658.66
2022-12-20T13:57:57.043Z,100654.02
2022-12-20T14:01:26.784Z,100641.48
2022-12-20T14:05:01.348Z,100630.64
2022-12-20T14:08:33.199Z,100630.70
2022-12-20T14:12:07.009Z,100626.89
2022-12-20T14:15:37.015Z,100628.05
2022-12-20T14:19:19.684Z,100632.61
2022-12-20T14:23:00.718Z,100632.94
2022-12-20T14:26:34.663Z,100629.33
2022-12-20T14:30:01.595Z,100629.98
2022-12-20T14:33:35.607Z,100621.77
2022-12-20T14:37:28.700Z,100624.59
2022-12-20T14:40:56.288Z,100617.83
2022-12-20T14:44:26.807Z,100616.86
2022-12-20T14:47:59.501Z,100608.70
2022-12-20T14:51:58.540Z,100610.46
2022-12-20T14:55:27.778Z,100621.83
2022-12-20T14:59:14.732Z,100617.34
2022-12-20T15:02:44.552Z,100597.71
2022-12-20T15:06:35.842Z,100604.33
2022-12-20T15:10:03.304Z,100619.34
2022-12-20T15:13:34.248Z,100615.27
2022-12-20T15:17:13.436Z,100619.09
2022-12-20T15:20:40.529Z,100628.48
2022-12-20T15:24:12.069Z,100618.48
2022-12-20T15:27:38.875Z,100581.00
2022-12-20T15:31:06.617Z,100594.88
2022-12-20T15:34:38.186Z,100600.23
2022-12-20T15:38:04.895Z,100588.98
2022-12-20T15:41:34.284Z,100586.64
2022-12-20T15:45:03.597Z,100596.36
2022-12-20T15:48:30.339Z,100592.13
2022-12-20T15:51:59.762Z,100582.73
2022-12-20T15:55:26.855Z,100588.25
2022-12-20T15:58:54.941Z,100590.51
2022-12-20T16:02:25.464Z,100595.48
2022-12-20T16:05:54.571Z,100590.85
2022-12-20T16:09:22.006Z,100586.70
2022-12-20T16:12:49.671Z,100593.32
2022-12-20T16:16:23.241Z,100587.90
2022-12-20T16:19:49.931Z,100577.00
2022-12-20T16:23:22.882Z,100576.48
2022-12-20T16:26:52.151Z,100588.73
2022-12-20T16:30:19.668Z,100591.52
2022-12-20T16:33:46.456Z,100601.46
2022-12-20T16:37:13.269Z,100603.91
2022-12-20T16:40:39.700Z,100597.24
2022-12-20T16:44:07.111Z,100584.96
2022-12-20T16:47:33.743Z,100570.27
2022-12-20T16:51:01.655Z,100572.60
2022-12-20T16:54:28.280Z,100569.56
2022-12-20T16:57:55.874Z,100569.91
2022-12-20T17:01:25.120Z,100567.83
2022-12-20T17:04:53.152Z,100561.61
2022-12-20T17:12:05.630Z,100550.33
2022-12-20T17:15:34.013Z,100544.63
2022-12-20T17:19:01.146Z,100547.10
2022-12-20T17:26:15.359Z,100553.40
2022-12-20T17:29:42.861Z,100551.80
2022-12-20T17:33:15.884Z,100553.27
2022-12-20T17:36:42.972Z,100548.36
2022-12-20T17:40:14.603Z,100546.20
2022-12-20T17:43:41.182Z,100542.80
2022-12-20T17:47:08.376Z,100544.43
2022-12-20T17:50:35.851Z,100539.20
2022-12-20T17:54:03.682Z,100540.71
2022-12-20T17:57:30.959Z,100530.80
2022-12-20T18:00:58.092Z,100527.70
2022-12-20T18:04:24.848Z,100532.77
2022-12-20T18:07:56.535Z,100534.13
2022-12-20T18:11:26.564Z,100528.75
2022-12-20T18:14:53.542Z,100532.61
2022-12-20T18:18:20.090Z,100530.79
2022-12-20T18:21:47.444Z,100529.16
2022-12-20T18:25:18.385Z,100516.52
2022-12-20T18:28:49.475Z,100505.44
2022-12-20T18:32:16.373Z,100501.42
2022-12-20T18:35:42.670Z,100497.14
2022-12-20T18:39:13.387Z,100485.79
2022-12-20T18:42:39.651Z,100480.83
2022-12-20T18:46:08.561Z,100480.70
2022-12-20T18:49:37.693Z,100474.40
2022-12-20T18:53:04.431Z,100466.05
2022-12-20T18:56:32.931Z,100460.80
2022-12-20T18:59:59.741Z,100465.02
2022-12-20T19:03:26.501Z,100467.42
2022-12-20T19:06:53.608Z,100467.44
2022-12-20T19:10:20.626Z,100474.32
2022-12-20T19:13:48.397Z,100468.98
2022-12-20T19:17:17.627Z,100464.77
2022-12-20T19:20:44.470Z,100470.01
2022-12-20T19:24:12.540Z,100466.88
2022-12-20T19:27:39.330Z,100475.41
2022-12-20T19:31:17.386Z,100472.27
2022-12-20T19:34:47.612Z,100471.86
2022-12-20T19:38:17.029Z,100468.90
2022-12-20T19:41:54.877Z,100469.42
2022-12-20T19:45:22.200Z,100466.02
2022-12-20T19:48:49.688Z,100462.53
2022-12-20T19:52:26.479Z,100469.38
2022-12-20T19:56:01.791Z,100459.28
2022-12-20T19:59:31.709Z,100463.29
2022-12-20T20:02:59.019Z,100468.10
2022-12-20T20:06:28.907Z,100463.14
2022-12-20T20:09:56.879Z,100454.39
2022-12-20T20:13:24.775Z,100452.30
2022-12-20T20:16:53.448Z,100452.60
2022-12-20T20:20:20.964Z,100450.81
2022-12-20T20:23:49.589Z,100458.64
2022-12-20T20:27:20.010Z,100462.34
2022-12-20T20:30:49.350Z,100465.72
2022-12-20T20:34:18.324Z,100469.13
2022-12-20T20:37:49.087Z,100471.84
2022-12-20T20:41:17.651Z,100475.29
2022-12-20T20:44:44.974Z,100478.04
2022-12-20T20:48:12.073Z,100469.94
2022-12-20T20:51:38.765Z,100482.95
2022-12-20T20:55:07.710Z,100474.40
2022-12-20T20:58:35.878Z,100465.50
2022-12-20T21:02:06.675Z,100467.26
2022-12-20T21:09:24.833Z,100459.67
2022-12-20T21:12:56.074Z,100450.41
2022-12-20T21:16:24.806Z,100448.68
2022-12-20T21:19:52.419Z,100451.17
2022-12-20T21:23:19.254Z,100450.71
2022-12-20T21:26:47.978Z,100450.42
2022-12-20T21:30:17.595Z,100446.26
2022-12-20T21:33:46.011Z,100443.98
2022-12-20T21:37:12.393Z,100448.28
2022-12-20T21:40:39.498Z,100446.58
2022-12-20T21:44:08.653Z,100443.20
2022-12-20T21:47:37.580Z,100438.49
2022-12-20T21:51:06.416Z,100434.31
2022-12-20T21:54:36.475Z,100434.21
2022-12-20T21:58:03.172Z,100419.36
2022-12-20T22:01:32.069Z,100407.90
2022-12-20T22:04:58.785Z,100404.00
2022-12-20T22:08:27.274Z,100410.72
2022-12-20T22:11:54.820Z,100423.77
2022-12-20T22:15:21.571Z,100427.99
2022-12-20T22:18:54.401Z,100421.39
2022-12-20T22:22:21.250Z,100410.33
2022-12-20T22:25:49.284Z,100411.05
2022-12-20T22:29:15.863Z,100403.21
2022-12-20T22:32:44.872Z,100395.25
2022-12-20T22:36:13.584Z,100387.52
2022-12-20T22:39:42.301Z,100381.08
2022-12-20T22:43:08.751Z,100376.70
2022-12-20T22:50:21.400Z,100379.21
2022-12-20T22:53:56.936Z,100378.59
2022-12-20T22:57:24.158Z,100375.23
2022-12-20T23:00:53.639Z,100364.38
2022-12-20T23:04:20.760Z,100363.45
2022-12-20T23:07:47.444Z,100362.11
2022-12-20T23:11:33.116Z,100355.13
2022-12-20T23:15:17.674Z,100352.71
2022-12-20T23:18:44.911Z,100353.70
2022-12-20T23:22:30.213Z,100357.94
2022-12-20T23:25:56.748Z,100354.61
2022-12-20T23:29:23.746Z,100351.68
2022-12-20T23:32:50.978Z,100345.66
2022-12-20T23:36:17.644Z,100337.08
2022-12-20T23:39:44.549Z,100319.47
2022-12-20T23:43:11.263Z,100318.80
2022-12-20T23:46:38.553Z,100320.44
2022-12-20T23:50:13.714Z,100320.19
2022-12-20T23:53:40.901Z,100320.08
2022-12-20T23:57:08.891Z,100323.55
